メインページ
METAR-TAF:

METAR-TAF

空港 :

クウェート, クウェート

クウェート国際空港

緯度: 29-13N, 経度: 047-59E, 海抜: 55m

現時点の気象観測

当レポートは24分前の17:00(UTC)に作成
北/北東の風 5kt
気温 21°C
湿度 64%
気圧 1011 hPa
視程10km以上
1,500メートル以下は雲なし、積乱雲なし

METAR: OKBK 251700Z 02005KT CAVOK 21/14 Q1011 NOSIG

時間: 20:24 (17:24 UTC)

予報

当レポートは6時間39分前の10:45(UTC)に作成
予報は25日の 12時(UTC)から 26日の 18時(UTC)まで有効
北/北東の風 8kt、最大18ktの突風を伴う
視程: 6000m
高度4000ftの雲は散在している
高度8000ftの千切れ雲あり
25日の 18時(UTC)から 25日の 20時(UTC)まで徐々に
北/北西の風 8kt

TAF: OKBK 251045Z 2512/2618 03008G18KT 6000 SCT040 BKN080 BECMG 2518/2520 34008KT NSC

4,000以上の空港の気象観測と天気予報(METAR報とTAF報)

利用可能な観測所は地図上に黄色い丸と赤い丸で示す。

丸の上にカーソルを重ねると観測所名を参照できる。

次にクリックすると気象観測と天気予報を参照できる。

マップの切り替え:黒色「×」印の緑ボタンをクリックして拡大、「-」印の緑ボタンをクリックして縮小、緑色の三角印をクリックして隣りの地図に切り替え


METAR-TAF: